Time;durP1;ratioP1;P1;durP2;ratioP2;P2;SDS_P1;SDS_P2;PMS_P1;PMS_P2;Temp;Humidity;BMP_temperature;BMP_pressure;BME280_temperature;BME280_humidity;BME280_pressure;Samples;Min_cycle;Max_cycle;Signal;HPM_P1;HPM_P2
2021/12/05 00:17:42;;;;;;;18.60;9.43;;;;;;;0.56;100.00;99592.44;5109382;28;20043;-73
2021/12/05 00:23:01;;;;;;;19.17;8.18;;;;;;;0.44;100.00;99618.84;5105651;28;20483;-73
2021/12/05 00:25:30;;;;;;;15.70;7.22;;;;;;;0.44;100.00;99634.59;5109474;28;20616;-73
2021/12/05 00:52:19;;;;;;;17.70;8.73;;;;;;;-0.18;100.00;99686.75;5093565;28;20085;-73
2021/12/05 01:02:49;;;;;;;19.67;9.18;;;;;;;-0.26;100.00;99733.69;5112517;28;20528;-73
2021/12/05 01:06:10;;;;;;;18.25;8.00;;;;;;;-0.33;100.00;99746.47;5127135;27;20066;-73
2021/12/05 01:11:29;;;;;;;14.90;7.47;;;;;;;-0.39;100.00;99760.03;5113308;28;20541;-73
2021/12/05 01:16:26;;;;;;;20.90;8.90;;;;;;;-0.41;100.00;99782.09;5111624;28;20035;-73
2021/12/05 01:18:52;;;;;;;19.48;10.00;;;;;;;-0.47;100.00;99789.47;5112233;28;20433;-74
2021/12/05 01:21:22;;;;;;;19.58;8.40;;;;;;;-0.54;100.00;99792.66;5113134;27;20062;-73
2021/12/05 01:24:01;;;;;;;21.73;8.77;;;;;;;-0.58;100.00;99807.81;5112771;28;20084;-74
2021/12/05 01:26:39;;;;;;;20.38;8.57;;;;;;;-0.58;100.00;99823.53;5111704;28;20032;-73
2021/12/05 01:29:18;;;;;;;19.27;8.02;;;;;;;-0.55;100.00;99841.66;5112873;27;20448;-74
2021/12/05 01:32:01;;;;;;;21.70;9.75;;;;;;;-0.54;100.00;99845.09;5094925;28;20031;-74
2021/12/05 01:34:38;;;;;;;17.08;8.77;;;;;;;-0.51;100.00;99864.06;5110933;28;20508;-74
2021/12/05 01:37:17;;;;;;;23.08;10.00;;;;;;;-0.56;100.00;99867.97;5094726;28;20028;-74
2021/12/05 01:40:00;;;;;;;21.30;8.13;;;;;;;-0.50;100.00;99884.09;5112082;28;20042;-74
2021/12/05 01:51:04;;;;;;;15.63;7.90;;;;;;;-0.50;100.00;99926.03;5111720;28;20052;-73
2021/12/05 01:56:47;;;;;;;17.33;8.48;;;;;;;-0.44;100.00;99951.84;5110163;28;20031;-73
2021/12/05 01:59:20;;;;;;;15.57;7.40;;;;;;;-0.46;100.00;99958.16;5111231;28;20035;-74
2021/12/05 02:32:35;;;;;;;15.10;7.15;;;;;;;-0.38;100.00;100076.44;5110851;28;20030;-74
2021/12/05 02:34:55;;;;;;;15.25;6.68;;;;;;;-0.34;100.00;100082.31;5109116;28;20040;-73
2021/12/05 02:38:02;;;;;;;13.40;7.00;;;;;;;-0.35;100.00;100078.00;5110632;28;20123;-74
2021/12/05 02:43:09;;;;;;;13.43;6.80;;;;;;;-0.32;100.00;100098.78;5111522;28;20473;-74
2021/12/05 02:45:35;;;;;;;13.30;8.13;;;;;;;-0.35;100.00;100084.13;5108033;28;20043;-74
2021/12/05 02:48:00;;;;;;;13.25;6.40;;;;;;;-0.49;100.00;100064.09;5093488;28;20027;-74
2021/12/05 02:50:29;;;;;;;13.88;8.07;;;;;;;-0.28;100.00;100097.59;5110304;28;20089;-74
2021/12/05 02:53:01;;;;;;;13.00;6.60;;;;;;;-0.34;100.00;100098.06;5110237;28;20032;-75
2021/12/05 02:55:37;;;;;;;15.20;7.72;;;;;;;-0.31;100.00;100105.69;5109827;28;20031;-74
2021/12/05 02:58:14;;;;;;;14.63;7.30;;;;;;;-0.35;100.00;100098.97;5093314;28;20038;-75
2021/12/05 03:03:20;;;;;;;15.32;7.85;;;;;;;-0.39;100.00;100097.56;5110119;28;20032;-74
2021/12/05 03:05:52;;;;;;;19.33;9.48;;;;;;;-0.38;100.00;100110.53;5109616;28;20053;-74
2021/12/05 03:08:18;;;;;;;14.82;8.15;;;;;;;-0.32;100.00;100122.41;5110745;28;20035;-74
2021/12/05 03:10:44;;;;;;;;;;;;;;;-0.29;100.00;100137.91;5093579;28;20042;-74
2021/12/05 03:13:09;;;;;;;16.05;8.90;;;;;;;-0.31;100.00;100134.56;5110901;28;19911;-74
2021/12/05 03:15:36;;;;;;;18.58;8.90;;;;;;;-0.28;100.00;100150.06;5088869;28;20445;-74
2021/12/05 03:18:02;;;;;;;18.20;8.70;;;;;;;-0.28;100.00;100155.31;5089520;28;20468;-75
2021/12/05 03:20:28;;;;;;;20.80;10.57;;;;;;;-0.28;100.00;100150.94;5089541;28;20104;-74
2021/12/05 03:22:53;;;;;;;20.73;10.55;;;;;;;-0.26;100.00;100156.06;5090512;28;20043;-74
2021/12/05 03:25:21;;;;;;;17.42;9.68;;;;;;;-0.23;100.00;100153.22;5108617;28;20495;-74
2021/12/05 03:27:47;;;;;;;18.70;10.85;;;;;;;-0.19;100.00;100170.41;5108972;28;20043;-74
2021/12/05 03:30:19;;;;;;;24.50;11.00;;;;;;;-0.25;100.00;100155.13;5103828;28;20031;-75
2021/12/05 03:32:49;;;;;;;21.85;10.23;;;;;;;-0.28;100.00;100145.69;5108770;28;20028;-74
2021/12/05 03:35:16;;;;;;;19.42;10.15;;;;;;;-0.26;100.00;100164.78;5091985;28;20059;-75
2021/12/05 03:37:41;;;;;;;21.00;10.50;;;;;;;-0.26;100.00;100161.31;5109255;28;20038;-74
2021/12/05 03:40:08;;;;;;;20.55;9.95;;;;;;;-0.17;100.00;100173.78;5092672;28;20567;-75
2021/12/05 03:42:35;;;;;;;20.40;11.05;;;;;;;-0.20;100.00;100155.63;5092529;28;20059;-74
2021/12/05 03:45:09;;;;;;;22.58;10.43;;;;;;;-0.20;100.00;100158.25;5108908;28;20043;-75
2021/12/05 03:47:34;;;;;;;20.80;10.60;;;;;;;-0.15;100.00;100171.88;5088984;28;20024;-75
2021/12/05 03:50:00;;;;;;;24.50;12.15;;;;;;;-0.20;100.00;100155.63;5072202;28;20084;-74
2021/12/05 03:52:26;;;;;;;20.70;11.68;;;;;;;-0.17;100.00;100165.91;5072100;28;20488;-75
2021/12/05 03:54:52;;;;;;;22.60;11.60;;;;;;;-0.23;100.00;100145.38;5088855;28;20074;-76
2021/12/05 03:57:18;;;;;;;25.50;12.35;;;;;;;-0.14;100.00;100167.47;5110464;28;20031;-74
2021/12/05 03:59:45;;;;;;;24.98;11.48;;;;;;;-0.25;100.00;100145.47;5092659;28;20019;-75
2021/12/05 04:02:10;;;;;;;26.40;11.77;;;;;;;-0.20;100.00;100158.25;5109111;28;20054;-74
2021/12/05 04:04:40;;;;;;;24.65;11.23;;;;;;;-0.11;100.00;100177.78;5092275;28;20039;-75
2021/12/05 04:07:07;;;;;;;24.38;12.10;;;;;;;-0.18;100.00;100156.38;5108800;28;20457;-75
2021/12/05 04:09:34;;;;;;;25.25;11.45;;;;;;;-0.10;100.00;100177.66;5109144;28;20059;-75
2021/12/05 04:12:02;;;;;;;28.40;12.68;;;;;;;-0.06;100.00;100183.53;5092179;28;20031;-75
2021/12/05 04:14:41;;;;;;;25.85;12.02;;;;;;;-0.03;100.00;100191.19;5108342;28;20023;-75
2021/12/05 04:17:10;;;;;;;20.67;10.93;;;;;;;0.04;100.00;100200.28;5092120;28;20384;-75
2021/12/05 04:19:36;;;;;;;19.92;10.98;;;;;;;0.06;100.00;100195.78;5108406;28;20027;-75
2021/12/05 04:22:04;;;;;;;23.95;10.15;;;;;;;0.01;100.00;100176.91;5091946;28;20597;-75
2021/12/05 04:24:32;;;;;;;22.52;10.32;;;;;;;0.07;100.00;100186.97;5087996;28;20235;-75
2021/12/05 04:26:58;;;;;;;23.88;11.57;;;;;;;0.04;100.00;100181.91;5105325;28;20036;-74
2021/12/05 04:29:24;;;;;;;24.20;10.75;;;;;;;-0.03;100.00;100171.00;5088588;28;20036;-75
2021/12/05 04:31:51;;;;;;;21.95;10.55;;;;;;;0.07;100.00;100180.88;5105276;28;20035;-74
2021/12/05 04:34:16;;;;;;;26.33;11.15;;;;;;;0.02;100.00;100175.09;5087269;28;20369;-75
2021/12/05 04:36:44;;;;;;;24.58;10.77;;;;;;;0.11;100.00;100193.66;5088457;28;20044;-75
2021/12/05 04:39:11;;;;;;;24.15;12.20;;;;;;;0.17;100.00;100188.00;5088383;28;20519;-75
2021/12/05 04:41:40;;;;;;;25.65;11.52;;;;;;;0.22;100.00;100187.66;5088398;28;20488;-75
2021/12/05 04:44:06;;;;;;;21.02;10.98;;;;;;;0.18;100.00;100179.16;5092285;28;20031;-75
2021/12/05 04:46:33;;;;;;;19.33;10.52;;;;;;;0.25;100.00;100183.97;5108426;28;20031;-75
2021/12/05 04:48:59;;;;;;;;;;;;;;;0.16;100.00;100165.31;5092253;28;20067;-75
2021/12/05 04:51:30;;;;;;;24.95;11.85;;;;;;;0.10;100.00;100155.25;5108640;28;20355;-75
2021/12/05 04:53:57;;;;;;;23.92;12.40;;;;;;;0.04;100.00;100144.34;5108002;28;20074;-75
2021/12/05 04:56:24;;;;;;;25.40;12.00;;;;;;;-0.02;100.00;100146.47;5108498;28;20031;-75
2021/12/05 04:58:52;;;;;;;29.35;12.70;;;;;;;0.01;100.00;100149.81;5091836;28;20081;-75
2021/12/05 05:01:23;;;;;;;25.13;10.93;;;;;;;0.10;100.00;100185.91;5108101;28;20059;-74
2021/12/05 05:03:49;;;;;;;26.23;13.27;;;;;;;0.02;100.00;100183.81;5108128;28;20479;-74
2021/12/05 05:06:17;;;;;;;30.10;13.48;;;;;;;0.14;100.00;100216.22;5108474;28;20076;-74
2021/12/05 05:08:47;;;;;;;27.27;13.38;;;;;;;0.19;100.00;100235.97;5108578;28;20639;-74
2021/12/05 05:11:16;;;;;;;26.27;13.45;;;;;;;0.20;100.00;100239.44;5108435;28;20126;-74
2021/12/05 05:13:42;;;;;;;33.25;13.27;;;;;;;0.10;100.00;100222.66;5107915;28;20040;-74
2021/12/05 05:16:09;;;;;;;;;;;;;;;0.26;100.00;100264.41;5091788;28;20134;-74
2021/12/05 05:18:46;;;;;;;28.73;12.85;;;;;;;0.17;100.00;100248.38;5108430;28;20006;-75
2021/12/05 05:45:17;;;;;;;31.77;15.60;;;;;;;0.34;100.00;100262.94;5111805;28;20063;-75
2021/12/05 05:47:59;;;;;;;29.48;13.45;;;;;;;0.22;100.00;100237.53;5112176;28;20380;-74
2021/12/05 05:50:25;;;;;;;33.00;15.20;;;;;;;0.19;100.00;100229.91;5111287;28;20471;-75
2021/12/05 05:52:50;;;;;;;33.17;15.15;;;;;;;0.18;100.00;100220.31;5093755;28;20035;-75
2021/12/05 05:55:16;;;;;;;31.98;14.80;;;;;;;0.08;100.00;100208.81;5109866;28;20111;-74
2021/12/05 05:57:48;;;;;;;36.03;15.95;;;;;;;0.08;100.00;100209.63;5111769;28;20540;-74
2021/12/05 06:00:27;;;;;;;33.65;16.05;;;;;;;0.18;100.00;100230.81;5106851;28;20079;-74
2021/12/05 06:06:00;;;;;;;33.78;15.30;;;;;;;0.11;100.00;100224.31;5088083;28;20032;-74
2021/12/05 06:08:29;;;;;;;35.20;16.13;;;;;;;0.06;100.00;100208.06;5096274;28;20043;-74
2021/12/05 06:10:59;;;;;;;31.27;14.63;;;;;;;0.18;100.00;100225.56;5111108;28;20111;-74
2021/12/05 06:13:26;;;;;;;35.65;17.02;;;;;;;0.14;100.00;100208.34;5111932;28;20032;-75
2021/12/05 06:15:53;;;;;;;37.08;17.40;;;;;;;0.17;100.00;100209.00;5110642;28;20985;-75
2021/12/05 06:18:19;;;;;;;34.90;16.45;;;;;;;0.23;100.00;100206.88;5111108;28;20039;-75
2021/12/05 06:20:45;;;;;;;38.45;16.27;;;;;;;0.13;100.00;100194.41;5112074;28;20042;-75
2021/12/05 06:23:13;;;;;;;35.75;16.38;;;;;;;0.03;100.00;100169.75;5110286;28;20054;-75
2021/12/05 06:25:41;;;;;;;32.80;15.93;;;;;;;0.26;100.00;100202.25;5090803;28;20634;-74
2021/12/05 06:28:11;;;;;;;33.20;16.33;;;;;;;0.15;100.00;100183.78;5108953;28;20042;-75
2021/12/05 06:31:06;;;;;;;38.92;18.25;;;;;;;0.17;100.00;100172.22;5108572;28;20058;-75
2021/12/05 06:47:27;;;;;;;34.20;14.98;;;;;;;0.36;100.00;100165.66;5111503;28;20468;-75
2021/12/05 06:49:55;;;;;;;33.67;15.50;;;;;;;0.31;100.00;100152.88;5110284;28;20063;-75
2021/12/05 06:52:21;;;;;;;39.83;17.50;;;;;;;0.14;100.00;100130.47;5093313;28;20039;-75
2021/12/05 06:54:46;;;;;;;37.28;17.27;;;;;;;0.12;100.00;100121.03;5110490;28;20031;-75
2021/12/05 06:57:12;;;;;;;35.50;15.95;;;;;;;0.24;100.00;100151.63;5110337;28;20036;-75
2021/12/05 06:59:41;;;;;;;31.27;14.50;;;;;;;0.23;100.00;100144.69;5110347;28;20120;-75
2021/12/05 07:02:09;;;;;;;33.42;17.08;;;;;;;0.19;100.00;100141.47;5092870;28;20031;-75
2021/12/05 07:07:07;;;;;;;36.25;17.55;;;;;;;-0.16;100.00;100102.00;5110861;28;20032;-75
2021/12/05 07:09:33;;;;;;;32.83;16.42;;;;;;;-0.09;100.00;100113.72;5111068;28;20566;-75
2021/12/05 07:14:50;;;;;;;35.22;17.35;;;;;;;1.07;100.00;100255.91;5104437;28;20027;-75
2021/12/05 07:22:27;;;;;;;38.33;16.80;;;;;;;0.54;100.00;100230.00;5109085;28;20031;-75
2021/12/05 07:25:06;;;;;;;30.38;14.52;;;;;;;0.52;100.00;100218.75;5109828;28;20345;-75
2021/12/05 07:40:56;;;;;;;40.50;17.60;;;;;;;0.23;100.00;100172.72;5109450;28;20032;-75
2021/12/05 07:43:21;;;;;;;36.17;17.50;;;;;;;0.19;100.00;100165.09;5107904;28;20051;-75
2021/12/05 07:45:59;;;;;;;35.95;17.58;;;;;;;0.19;100.00;100175.59;5098414;28;20143;-75
2021/12/05 07:48:29;;;;;;;42.58;18.95;;;;;;;0.24;100.00;100193.66;5108679;28;20445;-74
2021/12/05 07:51:09;;;;;;;44.58;19.48;;;;;;;0.14;100.00;100189.97;5102147;28;20028;-75
2021/12/05 07:53:49;;;;;;;38.50;18.88;;;;;;;0.15;100.00;100202.16;5103891;28;20031;-75
2021/12/05 07:56:21;;;;;;;41.15;17.90;;;;;;;0.17;100.00;100213.41;5104265;28;20575;-75
2021/12/05 08:14:23;;;;;;;42.85;19.27;;;;;;;0.10;100.00;100214.78;5107266;28;20065;-75
2021/12/05 08:14:24;;;;;;;;;;;;;;;0.13;100.00;100240.81;5108978;28;20027;-75
2021/12/05 08:15:16;;;;;;;46.70;18.70;;;;;;;0.36;100.00;100299.59;5096826;28;20096;-75
2021/12/05 08:17:50;;;;;;;37.00;18.05;;;;;;;0.36;100.00;100303.06;5108680;28;20039;-75
2021/12/05 08:20:17;;;;;;;37.75;17.38;;;;;;;0.38;100.00;100324.78;5109850;28;20035;-75
2021/12/05 08:22:43;;;;;;;42.53;18.15;;;;;;;0.39;100.00;100318.59;5109840;28;20031;-75
2021/12/05 08:25:12;;;;;;;32.80;17.75;;;;;;;0.41;100.00;100327.19;5087614;28;20089;-75
2021/12/05 08:27:43;;;;;;;34.30;17.05;;;;;;;0.49;100.00;100338.94;5089525;28;20070;-75
2021/12/05 08:30:15;;;;;;;34.50;16.25;;;;;;;0.50;100.00;100322.25;5104867;28;20345;-75
2021/12/05 08:38:53;;;;;;;43.67;17.77;;;;;;;0.46;100.00;100310.28;5108463;28;20036;-75
2021/12/05 08:43:54;;;;;;;43.28;19.63;;;;;;;0.45;100.00;100322.59;5108845;28;20036;-75
2021/12/05 09:08:32;;;;;;;52.67;26.20;;;;;;;0.40;100.00;100329.94;5107897;28;20361;-76
2021/12/05 09:27:58;;;;;;;38.40;17.75;;;;;;;0.51;100.00;100400.09;5112856;27;20032;-76
2021/12/05 10:03:23;;;;;;;45.75;20.67;;;;;;;0.84;100.00;100403.00;5111117;28;20047;-76
2021/12/05 10:08:43;;;;;;;41.13;18.88;;;;;;;0.81;100.00;100403.22;5112173;28;20049;-76
2021/12/05 10:16:51;;;;;;;39.25;19.73;;;;;;;0.80;100.00;100387.56;5111359;28;20348;-76
2021/12/05 10:19:59;;;;;;;37.25;16.92;;;;;;;0.68;100.00;100368.25;5091613;28;20036;-75
2021/12/05 10:34:28;;;;;;;40.22;20.80;;;;;;;0.59;100.00;100382.88;5111254;28;20105;-75
2021/12/05 10:37:16;;;;;;;71.93;34.88;;;;;;;0.77;100.00;100419.31;5111161;28;20040;-75
2021/12/05 10:39:42;;;;;;;42.90;22.00;;;;;;;0.72;100.00;100408.28;5111269;28;20463;-75
2021/12/05 10:42:34;;;;;;;37.95;21.13;;;;;;;0.72;100.00;100403.03;5109088;28;20099;-75
2021/12/05 10:45:00;;;;;;;39.75;19.60;;;;;;;0.89;100.00;100430.75;5110621;28;20040;-75
2021/12/05 10:47:45;;;;;;;47.20;26.43;;;;;;;0.74;100.00;100390.63;5110812;28;20529;-75
2021/12/05 10:50:34;;;;;;;45.72;24.88;;;;;;;0.89;100.00;100425.47;5111194;28;20122;-76
2021/12/05 10:53:22;;;;;;;38.83;20.42;;;;;;;0.79;100.00;100404.28;5110242;28;20055;-75
2021/12/05 10:56:03;;;;;;;40.33;22.67;;;;;;;0.75;100.00;100398.41;5110797;28;20099;-76
2021/12/05 10:58:53;;;;;;;40.70;25.90;;;;;;;0.84;100.00;100407.41;5109983;28;20046;-76
2021/12/05 11:01:34;;;;;;;36.42;19.35;;;;;;;0.94;100.00;100433.91;5102990;28;20047;-75
2021/12/05 11:04:07;;;;;;;61.85;34.38;;;;;;;0.88;100.00;100423.81;5105947;28;20031;-76
2021/12/05 11:06:39;;;;;;;47.05;26.92;;;;;;;1.02;100.00;100436.81;5110797;28;20055;-76
2021/12/05 11:09:14;;;;;;;62.35;33.90;;;;;;;0.98;100.00;100430.09;5109471;28;20035;-76
2021/12/05 11:11:43;;;;;;;51.22;26.88;;;;;;;0.93;100.00;100430.41;5110769;28;20110;-76
2021/12/05 11:14:19;;;;;;;66.32;33.85;;;;;;;0.89;100.00;100412.34;5109473;28;20039;-76
2021/12/05 11:16:51;;;;;;;78.60;40.75;;;;;;;0.94;100.00;100416.34;5092616;28;20084;-76
2021/12/05 11:19:27;;;;;;;55.83;29.13;;;;;;;0.97;100.00;100423.16;5088688;28;20032;-76
2021/12/05 11:21:55;;;;;;;;;;;;;;;1.29;100.00;100478.75;5108992;28;20043;-76
2021/12/05 11:24:28;;;;;;;86.32;42.80;;;;;;;1.16;100.00;100446.34;5110241;28;19923;-75
2021/12/05 11:27:05;;;;;;;81.57;39.15;;;;;;;1.04;100.00;100438.38;5109958;28;20110;-74
2021/12/05 11:29:52;;;;;;;61.10;32.22;;;;;;;1.05;100.00;100434.81;5108958;28;20035;-75
2021/12/05 11:32:29;;;;;;;47.75;25.75;;;;;;;1.15;100.00;100442.06;5110384;28;20035;-75
2021/12/05 11:34:55;;;;;;;65.43;35.13;;;;;;;0.96;100.00;100417.06;5109595;28;20055;-75
2021/12/05 11:37:20;;;;;;;49.03;25.08;;;;;;;0.87;100.00;100399.31;5109160;28;20481;-75
2021/12/05 11:39:47;;;;;;;45.17;23.63;;;;;;;0.75;100.00;100387.91;5075674;28;20094;-76
2021/12/05 11:42:21;;;;;;;41.03;19.85;;;;;;;0.81;100.00;100413.72;5089935;28;20039;-75
2021/12/05 11:44:54;;;;;;;51.45;24.80;;;;;;;1.02;100.00;100452.59;5102913;28;20031;-76
2021/12/05 11:47:23;;;;;;;37.08;18.40;;;;;;;0.98;100.00;100445.88;5109009;28;20034;-75
2021/12/05 11:49:49;;;;;;;56.35;30.17;;;;;;;0.95;100.00;100428.53;5110210;28;20020;-76
2021/12/05 11:52:22;;;;;;;54.25;26.75;;;;;;;1.00;100.00;100425.56;5109487;28;20043;-75
2021/12/05 11:54:50;;;;;;;43.17;22.75;;;;;;;0.90;100.00;100416.66;5108200;28;20071;-75
2021/12/05 11:57:24;;;;;;;52.80;27.95;;;;;;;0.87;100.00;100416.88;5109057;28;20092;-74
2021/12/05 12:00:28;;;;;;;64.10;31.02;;;;;;;0.92;100.00;100436.63;5108996;28;20051;-76
2021/12/05 12:02:55;;;;;;;56.55;28.45;;;;;;;0.78;100.00;100406.06;5107400;28;20491;-75
2021/12/05 12:05:28;;;;;;;31.75;16.98;;;;;;;0.58;100.00;100386.44;5109378;28;20031;-75
2021/12/05 12:08:05;;;;;;;35.00;19.00;;;;;;;0.66;100.00;100414.81;5109086;28;20032;-74
2021/12/05 12:10:39;;;;;;;35.85;20.25;;;;;;;0.63;100.00;100425.50;5109761;28;20043;-74
2021/12/05 12:13:11;;;;;;;34.42;19.60;;;;;;;0.69;100.00;100451.38;5091847;28;20188;-75
2021/12/05 12:15:39;;;;;;;35.35;21.20;;;;;;;0.75;100.00;100472.00;5115172;28;20112;-75
2021/12/05 12:18:15;;;;;;;62.10;33.97;;;;;;;0.72;100.00;100472.19;5092164;28;20020;-75
2021/12/05 12:20:44;;;;;;;33.13;17.63;;;;;;;0.86;100.00;100494.03;5108977;28;20349;-75
2021/12/05 12:23:09;;;;;;;32.13;17.40;;;;;;;0.76;100.00;100484.16;5108518;28;20024;-74
2021/12/05 12:25:38;;;;;;;25.65;14.55;;;;;;;0.78;100.00;100498.03;5106791;28;20050;-75
2021/12/05 12:28:07;;;;;;;24.85;13.82;;;;;;;0.74;100.00;100491.31;5108150;28;20032;-75
2021/12/05 12:30:36;;;;;;;20.13;11.93;;;;;;;0.86;100.00;100509.81;5109525;28;20051;-75
2021/12/05 12:33:15;;;;;;;22.52;11.43;;;;;;;0.82;100.00;100502.16;5108552;28;20047;-75
2021/12/05 12:35:44;;;;;;;22.17;10.65;;;;;;;0.80;100.00;100490.91;5088057;28;20125;-74
2021/12/05 12:38:14;;;;;;;20.60;10.85;;;;;;;0.81;100.00;100487.31;5089345;28;20122;-75
2021/12/05 12:40:50;;;;;;;17.58;10.70;;;;;;;0.70;100.00;100473.22;5089716;28;20071;-74
2021/12/05 12:43:34;;;;;;;17.67;9.63;;;;;;;0.71;100.00;100478.41;5092897;28;20047;-74
2021/12/05 12:46:13;;;;;;;21.73;13.20;;;;;;;0.73;100.00;100489.66;5091517;28;20032;-75
2021/12/05 12:48:39;;;;;;;32.65;19.00;;;;;;;0.85;100.00;100508.97;5090049;28;20468;-75
2021/12/05 12:51:04;;;;;;;29.33;16.73;;;;;;;0.87;100.00;100520.22;5107587;28;20035;-74
2021/12/05 12:53:38;;;;;;;22.13;11.77;;;;;;;0.84;100.00;100513.41;5110483;28;20042;-74
2021/12/05 12:56:17;;;;;;;31.35;18.45;;;;;;;0.75;100.00;100482.50;5111740;28;20042;-74
2021/12/05 12:59:10;;;;;;;29.75;18.48;;;;;;;0.87;100.00;100507.09;5112230;28;20073;-74
2021/12/05 13:02:14;;;;;;;41.95;22.60;;;;;;;0.65;100.00;100459.56;5112165;28;20035;-74
2021/12/05 13:10:01;;;;;;;27.42;12.70;;;;;;;0.52;100.00;100465.69;5113189;28;20118;-74
2021/12/05 13:10:41;;;;;;;24.13;13.50;;;;;;;0.63;100.00;100493.81;5111754;28;20482;-74
2021/12/05 13:13:13;;;;;;;21.40;12.25;;;;;;;0.71;100.00;100517.81;5112352;28;20516;-74
2021/12/05 13:15:57;;;;;;;23.20;13.57;;;;;;;0.60;100.00;100499.31;5110601;28;20027;-74
2021/12/05 13:18:32;;;;;;;31.30;16.10;;;;;;;0.57;100.00;100496.91;5112170;28;20034;-74
2021/12/05 13:21:31;;;;;;;41.83;24.90;;;;;;;0.63;100.00;100515.72;5112973;28;20070;-74
2021/12/05 13:23:57;;;;;;;26.85;15.85;;;;;;;0.57;100.00;100507.41;5108652;28;20631;-75
2021/12/05 13:26:30;;;;;;;;;;;;;;;0.55;100.00;100506.66;5113054;28;20031;-74
2021/12/05 13:29:09;;;;;;;16.73;9.90;;;;;;;0.54;100.00;100526.84;5111823;28;19912;-75
2021/12/05 13:31:38;;;;;;;23.15;11.73;;;;;;;0.67;100.00;100547.84;5111843;28;20039;-75
2021/12/05 13:34:33;;;;;;;18.83;9.70;;;;;;;0.82;100.00;100581.00;5112206;28;20055;-75
2021/12/05 13:37:05;;;;;;;19.92;10.00;;;;;;;0.79;100.00;100572.47;5111674;28;20078;-74
2021/12/05 13:39:47;;;;;;;17.35;9.52;;;;;;;0.84;100.00;100587.00;5111700;28;20100;-75
2021/12/05 13:42:43;;;;;;;36.53;21.80;;;;;;;0.77;100.00;100580.47;5111615;28;20051;-75
2021/12/05 13:45:27;;;;;;;22.23;12.77;;;;;;;0.79;100.00;100589.06;5111938;28;20035;-75
2021/12/05 13:47:52;;;;;;;20.10;11.50;;;;;;;0.66;100.00;100559.31;5112446;28;20043;-75
2021/12/05 13:50:25;;;;;;;13.53;8.13;;;;;;;0.74;100.00;100582.44;5111296;28;20399;-75
2021/12/05 13:53:03;;;;;;;21.88;11.82;;;;;;;0.81;100.00;100589.81;5109982;28;20035;-75
2021/12/05 13:55:45;;;;;;;50.38;26.90;;;;;;;0.84;100.00;100600.13;5110309;28;20031;-75
2021/12/05 13:58:24;;;;;;;38.50;19.90;;;;;;;0.90;100.00;100619.06;5110923;28;20578;-75
2021/12/05 14:01:15;;;;;;;21.23;10.38;;;;;;;0.89;100.00;100607.72;5112097;28;20035;-74
2021/12/05 14:03:44;;;;;;;28.02;11.13;;;;;;;0.88;100.00;100613.06;5111436;28;20376;-75
2021/12/05 14:06:37;;;;;;;17.02;8.02;;;;;;;0.89;100.00;100620.00;5110867;28;20038;-74
2021/12/05 14:09:05;;;;;;;20.42;10.20;;;;;;;0.90;100.00;100616.44;5111012;28;20112;-75
2021/12/05 14:11:32;;;;;;;22.77;9.13;;;;;;;0.82;100.00;100609.91;5111526;28;20031;-75
2021/12/05 14:14:02;;;;;;;18.50;8.82;;;;;;;0.97;100.00;100644.00;5109949;28;20031;-75
2021/12/05 14:16:38;;;;;;;16.92;8.85;;;;;;;0.94;100.00;100638.94;5111432;28;20035;-75
2021/12/05 14:19:10;;;;;;;17.25;7.95;;;;;;;0.83;100.00;100626.50;5110880;28;20424;-75
2021/12/05 14:21:46;;;;;;;22.25;10.88;;;;;;;0.90;100.00;100640.94;5111380;28;20027;-75
2021/12/05 14:24:13;;;;;;;22.95;11.88;;;;;;;0.87;100.00;100640.28;5110477;28;20036;-75
2021/12/05 14:26:40;;;;;;;29.48;13.45;;;;;;;0.79;100.00;100625.03;5110426;28;20039;-75
2021/12/05 14:29:12;;;;;;;17.77;10.73;;;;;;;0.81;100.00;100631.88;5111629;28;20827;-75
2021/12/05 14:31:41;;;;;;;52.35;27.67;;;;;;;0.74;100.00;100614.81;5110682;28;20046;-75
2021/12/05 14:34:12;;;;;;;26.58;13.85;;;;;;;0.78;100.00;100624.19;5110972;28;20069;-75
2021/12/05 14:36:44;;;;;;;19.45;10.90;;;;;;;0.74;100.00;100622.72;5110039;28;20126;-74
2021/12/05 14:39:18;;;;;;;24.95;11.68;;;;;;;0.75;100.00;100627.03;5111404;28;20038;-75
2021/12/05 14:41:46;;;;;;;19.58;9.90;;;;;;;0.70;100.00;100615.13;5111448;28;20385;-76
2021/12/05 14:44:13;;;;;;;21.27;10.20;;;;;;;0.72;100.00;100629.84;5110868;28;20046;-76
2021/12/05 14:47:02;;;;;;;24.20;11.60;;;;;;;0.59;100.00;100611.44;5110375;28;20038;-75
2021/12/05 14:49:32;;;;;;;30.08;14.63;;;;;;;0.69;100.00;100635.31;5110093;28;20035;-75
2021/12/05 14:51:59;;;;;;;27.98;14.15;;;;;;;0.69;100.00;100647.63;5092978;28;20032;-75
2021/12/05 14:54:32;;;;;;;21.30;12.23;;;;;;;0.65;100.00;100649.59;5110039;28;20043;-75
2021/12/05 14:56:58;;;;;;;28.25;13.55;;;;;;;0.72;100.00;100673.69;5110068;28;20047;-76
2021/12/05 14:59:24;;;;;;;30.60;16.27;;;;;;;0.68;100.00;100675.69;5109940;28;20031;-75
2021/12/05 15:01:55;;;;;;;37.80;22.40;;;;;;;0.78;100.00;100707.47;5110079;28;20382;-77
2021/12/05 15:04:26;;;;;;;46.30;24.23;;;;;;;0.79;100.00;100709.97;5109376;28;20035;-75
2021/12/05 15:06:52;;;;;;;32.28;17.20;;;;;;;0.83;100.00;100715.88;5110708;28;20046;-76
2021/12/05 15:09:29;;;;;;;35.78;18.25;;;;;;;0.81;100.00;100734.38;5110113;28;20449;-76
2021/12/05 15:12:18;;;;;;;36.63;19.52;;;;;;;0.82;100.00;100743.13;5110632;28;20349;-76
2021/12/05 15:14:46;;;;;;;45.22;21.63;;;;;;;0.74;100.00;100740.97;5089171;28;20097;-76
2021/12/05 15:17:19;;;;;;;58.28;29.17;;;;;;;0.74;100.00;100748.84;5072510;28;20794;-77
2021/12/05 15:19:48;;;;;;;31.35;15.65;;;;;;;0.82;100.00;100777.28;5089592;28;20438;-77
2021/12/05 15:22:15;;;;;;;31.63;13.38;;;;;;;0.82;100.00;100783.38;5092203;28;20460;-75
2021/12/05 15:24:50;;;;;;;27.55;15.80;;;;;;;0.71;100.00;100785.00;5092365;28;20049;-77
2021/12/05 15:27:20;;;;;;;27.85;15.63;;;;;;;0.80;100.00;100794.94;5110291;28;20036;-76
2021/12/05 15:29:51;;;;;;;32.97;18.83;;;;;;;0.80;100.00;100813.34;5110504;28;20042;-76
2021/12/05 15:32:23;;;;;;;37.80;20.50;;;;;;;0.79;100.00;100815.09;5092314;28;20042;-76
2021/12/05 15:34:58;;;;;;;34.58;17.77;;;;;;;0.89;100.00;100832.91;5090310;28;20453;-77
2021/12/05 15:37:24;;;;;;;34.60;16.33;;;;;;;0.88;100.00;100833.88;5108320;28;20031;-76
2021/12/05 15:39:52;;;;;;;30.35;13.82;;;;;;;0.77;100.00;100826.66;5108519;28;20483;-76
2021/12/05 15:42:27;;;;;;;38.47;15.95;;;;;;;0.83;100.00;100845.50;5091318;28;20096;-77
2021/12/05 15:44:56;;;;;;;38.50;18.60;;;;;;;0.90;100.00;100861.75;5108177;28;20028;-77
2021/12/05 15:47:25;;;;;;;56.08;29.70;;;;;;;0.88;100.00;100868.03;5107238;28;20068;-77
2021/12/05 15:49:59;;;;;;;42.60;17.55;;;;;;;0.90;100.00;100877.50;5108026;28;20042;-77
2021/12/05 15:52:41;;;;;;;34.90;19.65;;;;;;;0.97;100.00;100893.75;5108043;28;20077;-77
2021/12/05 15:55:12;;;;;;;48.83;21.85;;;;;;;1.00;100.00;100901.44;5108955;28;20532;-76
2021/12/05 15:57:41;;;;;;;50.90;23.70;;;;;;;1.02;100.00;100907.44;5108885;28;20101;-76
2021/12/05 16:00:22;;;;;;;53.08;29.02;;;;;;;0.95;100.00;100904.34;5101535;28;20041;-76
2021/12/05 16:02:56;;;;;;;34.60;19.48;;;;;;;0.93;100.00;100914.13;5108815;28;20039;-76
2021/12/05 16:05:22;;;;;;;43.33;26.17;;;;;;;0.90;100.00;100916.94;5109309;28;20851;-77
2021/12/05 16:07:49;;;;;;;;;;;;;;;0.99;100.00;100947.09;5108950;28;20038;-76
2021/12/05 16:10:19;;;;;;;78.32;42.22;;;;;;;0.99;100.00;100954.97;5110147;28;19911;-76
2021/12/05 16:12:46;;;;;;;47.47;24.77;;;;;;;1.04;100.00;100958.16;5107609;28;20061;-76
2021/12/05 16:15:14;;;;;;;51.10;24.98;;;;;;;1.04;100.00;100973.94;5106548;28;20035;-75
2021/12/05 16:17:41;;;;;;;43.00;20.70;;;;;;;1.05;100.00;100988.75;5086582;28;20465;-75
2021/12/05 16:20:17;;;;;;;37.78;19.08;;;;;;;1.01;100.00;100990.75;5090373;28;20032;-76